Time,TemperatureF,DewpointF,PressureIn,WindDirection,WindDirectionDegrees,WindSpeedMPH,WindSpeedGustMPH,Humidity,HourlyPrecipIn,Conditions,Clouds,dailyrainin,SoftwareType,DateUTC
2013-02-26 00:01:00,21.7,16.5,29.81,NNW,336,1.8,3.0,80,0.00,RA,SKC,0.00,WeatherDisplay:10.37,2013-02-26 06:01:00,
2013-02-26 00:06:00,21.7,16.8,29.81,NNW,336,1.4,2.3,81,0.00,RA,SKC,0.00,WeatherDisplay:10.37,2013-02-26 06:06:00,
2013-02-26 00:11:00,21.3,16.4,29.80,NNW,336,2.4,3.5,81,0.00,,SKC,0.00,WeatherDisplay:10.37,2013-02-26 06:11:00,
2013-02-26 00:16:00,21.0,16.1,29.80,NNW,336,1.7,3.5,81,0.00,,SKC,0.00,WeatherDisplay:10.37,2013-02-26 06:16:00,
2013-02-26 00:21:00,20.9,16.0,29.80,NNW,336,1.2,3.5,81,0.00,,SKC,0.00,WeatherDisplay:10.37,2013-02-26 06:21:00,
2013-02-26 00:26:00,20.4,15.5,29.80,NNW,336,0.0,1.1,81,0.00,,SKC,0.00,WeatherDisplay:10.37,2013-02-26 06:26:00,
2013-02-26 00:31:00,19.0,13.6,29.80,NNW,336,0.0,0.0,79,0.00,,SKC,0.00,WeatherDisplay:10.37,2013-02-26 06:31:00,
2013-02-26 00:36:00,17.7,12.3,29.80,NNW,336,0.0,1.1,79,0.00,,SKC,0.00,WeatherDisplay:10.37,2013-02-26 06:36:00,
2013-02-26 00:41:00,17.1,12.0,29.80,NNW,336,1.2,3.0,80,0.00,,SKC,0.00,WeatherDisplay:10.37,2013-02-26 06:41:00,
2013-02-26 00:46:00,16.8,11.7,29.80,NNW,336,1.8,3.5,80,0.00,,SKC,0.00,WeatherDisplay:10.37,2013-02-26 06:46:00,
2013-02-26 00:51:00,17.7,12.9,29.79,NNW,336,2.7,3.5,81,0.00,,SKC,0.00,WeatherDisplay:10.37,2013-02-26 06:51:00,
2013-02-26 00:56:00,19.1,14.5,29.79,NNW,336,2.5,3.5,82,0.00,,SKC,0.00,WeatherDisplay:10.37,2013-02-26 06:56:00,
2013-02-26 01:01:00,19.8,15.2,29.79,NNW,336,2.3,3.5,82,0.00,,SKC,0.00,WeatherDisplay:10.37,2013-02-26 07:01:00,
2013-02-26 01:06:00,20.1,15.8,29.79,NNW,336,1.9,4.0,83,0.00,,SKC,0.00,WeatherDisplay:10.37,2013-02-26 07:06:00,
2013-02-26 01:11:00,20.3,15.7,29.79,NNW,336,2.1,3.5,82,0.00,,SKC,0.00,WeatherDisplay:10.37,2013-02-26 07:11:00,
2013-02-26 01:16:00,20.3,15.7,29.79,NNW,336,3.2,4.0,82,0.00,,SKC,0.00,WeatherDisplay:10.37,2013-02-26 07:16:00,
2013-02-26 01:21:00,20.3,15.6,29.79,NNW,336,2.0,5.0,82,0.00,CLR,SKC,0.00,WeatherDisplay:10.37,2013-02-26 07:21:00,
2013-02-26 01:26:00,20.6,16.0,29.79,NNW,336,1.4,3.5,82,0.00,CLR,SKC,0.00,WeatherDisplay:10.37,2013-02-26 07:26:00,
2013-02-26 01:31:00,20.5,15.9,29.78,NNW,336,2.1,3.5,82,0.00,CLR,SKC,0.00,WeatherDisplay:10.37,2013-02-26 07:31:00,
2013-02-26 01:36:00,20.4,15.5,29.78,NNW,336,2.0,5.0,81,0.00,CLR,SKC,0.00,WeatherDisplay:10.37,2013-02-26 07:36:00,
2013-02-26 01:41:00,20.4,15.5,29.79,NNW,336,1.0,3.5,81,0.00,CLR,SKC,0.00,WeatherDisplay:10.37,2013-02-26 07:41:00,
2013-02-26 01:46:00,20.5,15.6,29.79,NNW,336,0.0,1.1,81,0.00,CLR,SKC,0.00,WeatherDisplay:10.37,2013-02-26 07:46:00,
2013-02-26 01:51:00,20.5,15.6,29.79,NNW,336,2.0,3.0,81,0.00,CLR,SKC,0.00,WeatherDisplay:10.37,2013-02-26 07:51:00,
2013-02-26 01:56:00,20.6,15.7,29.79,NNW,336,1.4,3.5,81,0.00,CLR,SKC,0.00,WeatherDisplay:10.37,2013-02-26 07:56:00,
2013-02-26 02:01:00,20.6,15.7,29.79,NNW,336,0.5,3.5,81,0.00,CLR,SKC,0.00,WeatherDisplay:10.37,2013-02-26 08:01:00,
2013-02-26 02:06:00,20.6,15.7,29.79,NNW,336,1.0,2.3,81,0.00,CLR,SKC,0.00,WeatherDisplay:10.37,2013-02-26 08:06:00,
2013-02-26 02:11:00,20.5,15.6,29.79,NNW,336,0.3,2.3,81,0.00,CLR,SKC,0.00,WeatherDisplay:10.37,2013-02-26 08:11:00,
2013-02-26 02:16:00,19.9,14.7,29.79,NNW,336,0.0,0.0,80,0.00,CLR,SKC,0.00,WeatherDisplay:10.37,2013-02-26 08:16:00,
2013-02-26 02:21:00,18.5,12.7,29.78,NNW,336,0.0,3.0,78,0.00,CLR,SKC,0.00,WeatherDisplay:10.37,2013-02-26 08:21:00,
2013-02-26 02:26:00,17.3,11.9,29.78,NNW,336,0.0,0.0,79,0.00,CLR,SKC,0.00,WeatherDisplay:10.37,2013-02-26 08:26:00,
2013-02-26 02:31:00,17.1,12.0,29.78,NNW,336,0.0,0.0,80,0.00,CLR,SKC,0.00,WeatherDisplay:10.37,2013-02-26 08:31:00,
2013-02-26 02:36:00,17.1,12.3,29.78,NNW,336,0.0,0.0,81,0.00,CLR,SKC,0.00,WeatherDisplay:10.37,2013-02-26 08:36:00,
2013-02-26 02:41:00,17.1,12.0,29.78,NNW,336,0.0,0.0,80,0.00,CLR,SKC,0.00,WeatherDisplay:10.37,2013-02-26 08:41:00,
2013-02-26 02:46:00,17.1,12.3,29.77,NNW,336,0.0,0.0,81,0.00,CLR,SKC,0.00,WeatherDisplay:10.37,2013-02-26 08:46:00,
2013-02-26 02:51:00,17.7,12.8,29.76,NNW,336,2.0,4.0,81,0.00,CLR,SKC,0.00,WeatherDisplay:10.37,2013-02-26 08:51:00,
2013-02-26 02:56:00,18.4,13.8,29.76,NNW,336,0.2,1.1,82,0.00,CLR,SKC,0.00,WeatherDisplay:10.37,2013-02-26 08:56:00,
2013-02-26 03:01:00,18.7,14.1,29.76,NNW,336,1.1,3.0,82,0.00,CLR,SKC,0.00,WeatherDisplay:10.37,2013-02-26 09:01:00,
2013-02-26 03:06:00,18.7,13.8,29.76,NNW,336,1.0,3.0,81,0.00,CLR,SKC,0.00,WeatherDisplay:10.37,2013-02-26 09:06:00,
2013-02-26 03:11:00,18.8,13.9,29.75,NNW,336,2.1,3.5,81,0.00,CLR,SKC,0.00,WeatherDisplay:10.37,2013-02-26 09:11:00,
2013-02-26 03:16:00,18.8,13.9,29.75,NNW,336,1.3,3.5,81,0.00,CLR,SKC,0.00,WeatherDisplay:10.37,2013-02-26 09:16:00,
2013-02-26 03:21:00,18.8,13.9,29.75,NNW,336,2.0,3.0,81,0.00,CLR,SKC,0.00,WeatherDisplay:10.37,2013-02-26 09:21:00,
2013-02-26 03:26:00,18.8,13.9,29.74,NNW,336,1.9,4.0,81,0.00,CLR,SKC,0.00,WeatherDisplay:10.37,2013-02-26 09:26:00,
2013-02-26 03:31:00,18.9,14.0,29.75,NNW,336,0.1,1.1,81,0.00,CLR,SKC,0.00,WeatherDisplay:10.37,2013-02-26 09:31:00,
2013-02-26 03:36:00,18.9,14.1,29.74,NNW,336,2.0,5.0,81,0.00,CLR,SKC,0.00,WeatherDisplay:10.37,2013-02-26 09:36:00,
2013-02-26 03:41:00,19.0,14.1,29.75,NNW,336,1.6,3.0,81,0.00,CLR,SKC,0.00,WeatherDisplay:10.37,2013-02-26 09:41:00,
2013-02-26 03:46:00,19.2,14.3,29.74,NNW,336,1.6,3.5,81,0.00,CLR,SKC,0.00,WeatherDisplay:10.37,2013-02-26 09:46:00,
2013-02-26 03:51:00,19.3,14.4,29.74,NNW,336,2.0,4.0,81,0.00,CLR,SKC,0.00,WeatherDisplay:10.37,2013-02-26 09:51:00,
2013-02-26 03:56:00,19.3,14.4,29.74,NNW,340,3.0,5.8,81,0.00,CLR,SKC,0.00,WeatherDisplay:10.37,2013-02-26 09:56:00,
2013-02-26 04:01:00,19.4,14.5,29.73,NNW,340,2.2,3.5,81,0.00,CLR,SKC,0.00,WeatherDisplay:10.37,2013-02-26 10:01:00,
2013-02-26 04:06:00,19.5,14.6,29.73,NNW,340,3.0,6.0,81,0.00,CLR,SKC,0.00,WeatherDisplay:10.37,2013-02-26 10:06:00,
2013-02-26 04:11:00,19.5,14.6,29.73,NNW,341,3.1,4.0,81,0.00,CLR,SKC,0.00,WeatherDisplay:10.37,2013-02-26 10:11:00,
2013-02-26 04:16:00,19.5,14.6,29.73,NNW,342,2.5,4.0,81,0.00,CLR,SKC,0.00,WeatherDisplay:10.37,2013-02-26 10:16:00,
2013-02-26 04:21:00,19.6,14.7,29.72,NNW,342,2.0,5.0,81,0.00,CLR,SKC,0.00,WeatherDisplay:10.37,2013-02-26 10:21:00,
2013-02-26 04:26:00,19.7,14.8,29.73,NNW,342,2.7,4.0,81,0.00,CLR,SKC,0.00,WeatherDisplay:10.37,2013-02-26 10:26:00,
2013-02-26 04:31:00,19.8,14.9,29.72,NNW,348,3.2,5.8,81,0.00,CLR,SKC,0.00,WeatherDisplay:10.37,2013-02-26 10:31:00,
2013-02-26 04:36:00,19.8,14.9,29.73,NNW,347,2.0,6.0,81,0.00,CLR,SKC,0.00,WeatherDisplay:10.37,2013-02-26 10:36:00,
2013-02-26 04:41:00,19.8,14.9,29.73,NNW,348,2.3,3.5,81,0.00,CLR,SKC,0.00,WeatherDisplay:10.37,2013-02-26 10:41:00,
2013-02-26 04:46:00,19.8,14.9,29.72,NNW,348,1.6,3.5,81,0.00,CLR,SKC,0.00,WeatherDisplay:10.37,2013-02-26 10:46:00,
2013-02-26 04:51:00,19.8,14.9,29.72,NNW,348,1.6,3.5,81,0.00,CLR,SKC,0.00,WeatherDisplay:10.37,2013-02-26 10:51:00,
2013-02-26 04:56:00,19.8,14.9,29.72,NNW,348,2.5,3.5,81,0.00,CLR,SKC,0.00,WeatherDisplay:10.37,2013-02-26 10:56:00,
2013-02-26 05:01:00,19.8,14.9,29.73,North,349,2.3,3.5,81,0.00,CLR,SKC,0.00,WeatherDisplay:10.37,2013-02-26 11:01:00,
2013-02-26 05:06:00,19.8,14.9,29.72,North,349,2.2,3.5,81,0.00,CLR,SKC,0.00,WeatherDisplay:10.37,2013-02-26 11:06:00,
2013-02-26 05:11:00,19.8,14.6,29.72,North,355,2.5,3.5,80,0.00,CLR,SKC,0.00,WeatherDisplay:10.37,2013-02-26 11:11:00,
2013-02-26 05:16:00,19.7,14.5,29.73,North,355,0.0,1.1,80,0.00,CLR,SKC,0.00,WeatherDisplay:10.37,2013-02-26 11:16:00,
2013-02-26 05:21:00,19.7,14.5,29.72,North,355,2.4,4.0,80,0.00,CLR,SKC,0.00,WeatherDisplay:10.37,2013-02-26 11:21:00,
2013-02-26 05:26:00,19.7,14.8,29.73,North,355,1.6,3.5,81,0.00,CLR,SKC,0.00,WeatherDisplay:10.37,2013-02-26 11:26:00,
2013-02-26 05:31:00,19.8,14.9,29.73,North,360,1.2,3.5,81,0.00,CLR,SKC,0.00,WeatherDisplay:10.37,2013-02-26 11:31:00,
2013-02-26 05:36:00,19.8,14.9,29.73,North,360,0.2,1.1,81,0.00,CLR,SKC,0.00,WeatherDisplay:10.37,2013-02-26 11:36:00,
2013-02-26 05:41:00,19.9,15.0,29.73,North,360,0.5,3.5,81,0.00,CLR,SKC,0.00,WeatherDisplay:10.37,2013-02-26 11:41:00,
2013-02-26 05:46:00,19.8,14.6,29.74,North,360,0.0,2.3,80,0.00,CLR,SKC,0.00,WeatherDisplay:10.37,2013-02-26 11:46:00,
2013-02-26 05:51:00,19.9,15.0,29.73,North,360,0.1,1.1,81,0.00,CLR,SKC,0.00,WeatherDisplay:10.37,2013-02-26 11:51:00,
2013-02-26 05:56:00,19.9,15.0,29.74,North,360,0.0,0.0,81,0.00,CLR,SKC,0.00,WeatherDisplay:10.37,2013-02-26 11:56:00,
2013-02-26 06:01:00,20.0,15.1,29.74,North,360,0.0,0.0,81,0.00,CLR,SKC,0.00,WeatherDisplay:10.37,2013-02-26 12:01:00,
2013-02-26 06:06:00,20.3,15.4,29.73,North,360,1.5,3.5,81,0.00,CLR,SKC,0.00,WeatherDisplay:10.37,2013-02-26 12:06:00,
2013-02-26 06:11:00,20.4,15.5,29.73,NNE,19,2.7,4.6,81,0.00,CLR,SKC,0.00,WeatherDisplay:10.37,2013-02-26 12:11:00,
2013-02-26 06:16:00,20.6,15.7,29.74,NNE,19,0.8,2.3,81,0.00,CLR,SKC,0.00,WeatherDisplay:10.37,2013-02-26 12:16:00,
2013-02-26 06:21:00,20.5,15.6,29.73,NNE,18,1.7,3.5,81,0.00,CLR,SKC,0.00,WeatherDisplay:10.37,2013-02-26 12:21:00,
2013-02-26 06:26:00,20.4,15.5,29.73,NNE,17,2.6,3.5,81,0.00,CLR,SKC,0.00,WeatherDisplay:10.37,2013-02-26 12:26:00,
2013-02-26 06:31:00,20.3,15.4,29.73,NNE,16,0.0,1.1,81,0.00,CLR,SKC,0.00,WeatherDisplay:10.37,2013-02-26 12:31:00,
2013-02-26 06:36:00,20.0,14.8,29.73,NNE,16,0.0,0.0,80,0.00,CLR,SKC,0.00,WeatherDisplay:10.37,2013-02-26 12:36:00,
2013-02-26 06:41:00,19.3,13.9,29.73,NNE,16,0.0,0.0,79,0.00,CLR,SKC,0.00,WeatherDisplay:10.37,2013-02-26 12:41:00,
2013-02-26 06:46:00,18.6,13.2,29.73,NNE,16,0.0,0.0,79,0.00,CLR,SKC,0.00,WeatherDisplay:10.37,2013-02-26 12:46:00,
2013-02-26 06:51:00,18.1,12.7,29.73,NNE,16,0.1,1.1,79,0.00,CLR,SKC,0.00,WeatherDisplay:10.37,2013-02-26 12:51:00,
2013-02-26 06:56:00,18.5,13.6,29.73,NNE,13,0.1,1.1,81,0.00,CLR,SKC,0.00,WeatherDisplay:10.37,2013-02-26 12:56:00,
2013-02-26 07:01:00,18.8,13.9,29.73,NNE,13,0.4,2.3,81,0.00,CLR,SKC,0.00,WeatherDisplay:10.37,2013-02-26 13:01:00,
2013-02-26 07:06:00,19.2,14.3,29.72,NNE,13,1.6,3.5,81,0.00,CLR,SKC,0.00,WeatherDisplay:10.37,2013-02-26 13:06:00,
2013-02-26 07:11:00,19.5,14.6,29.72,NNE,13,1.2,4.0,81,0.00,CLR,SKC,0.00,WeatherDisplay:10.37,2013-02-26 13:11:00,
2013-02-26 07:16:00,19.8,14.9,29.72,NNE,13,2.1,3.5,81,0.00,CLR,SKC,0.00,WeatherDisplay:10.37,2013-02-26 13:16:00,
2013-02-26 07:21:00,19.9,15.0,29.72,NNE,13,1.2,3.5,81,0.00,,SKC,0.00,WeatherDisplay:10.37,2013-02-26 13:21:00,
2013-02-26 07:26:00,20.0,15.1,29.72,NNE,12,2.3,4.0,81,0.00,,SKC,0.00,WeatherDisplay:10.37,2013-02-26 13:26:00,
2013-02-26 07:31:00,20.0,15.1,29.72,NNE,12,2.3,4.0,81,0.00,,SKC,0.00,WeatherDisplay:10.37,2013-02-26 13:31:00,
2013-02-26 07:36:00,19.8,14.6,29.72,North,11,3.8,5.0,80,0.00,,SKC,0.00,WeatherDisplay:10.37,2013-02-26 13:36:00,
2013-02-26 07:41:00,19.7,14.5,29.72,North,11,2.5,4.0,80,0.00,,SKC,0.00,WeatherDisplay:10.37,2013-02-26 13:41:00,
2013-02-26 07:46:00,19.7,14.8,29.72,North,11,2.8,4.0,81,0.00,,SKC,0.00,WeatherDisplay:10.37,2013-02-26 13:46:00,
2013-02-26 07:51:00,19.7,14.5,29.72,North,9,3.5,5.0,80,0.00,,SKC,0.00,WeatherDisplay:10.37,2013-02-26 13:51:00,
2013-02-26 07:56:00,19.9,15.0,29.72,North,5,2.7,4.0,81,0.00,,SKC,0.00,WeatherDisplay:10.37,2013-02-26 13:56:00,
2013-02-26 08:01:00,19.9,15.0,29.72,North,5,2.5,4.0,81,0.00,,SKC,0.00,WeatherDisplay:10.37,2013-02-26 14:01:00,
2013-02-26 08:06:00,20.2,15.3,29.72,North,5,2.6,4.0,81,0.00,,SKC,0.00,WeatherDisplay:10.37,2013-02-26 14:06:00,
2013-02-26 08:11:00,20.4,15.5,29.72,North,355,2.1,4.0,81,0.00,,SKC,0.00,WeatherDisplay:10.37,2013-02-26 14:11:00,
2013-02-26 08:16:00,20.5,15.6,29.72,North,355,2.0,4.0,81,0.00,,SKC,0.00,WeatherDisplay:10.37,2013-02-26 14:16:00,
2013-02-26 08:21:00,20.6,15.7,29.72,North,355,2.7,3.5,81,0.00,,SKC,0.00,WeatherDisplay:10.37,2013-02-26 14:21:00,
2013-02-26 08:26:00,20.6,15.7,29.72,North,355,2.8,4.6,81,0.00,,SKC,0.00,WeatherDisplay:10.37,2013-02-26 14:26:00,
2013-02-26 08:31:00,20.7,15.8,29.72,North,355,2.4,3.5,81,0.00,CLR,SKC,0.00,WeatherDisplay:10.37,2013-02-26 14:31:00,
2013-02-26 08:36:00,20.9,16.0,29.72,North,355,2.4,3.5,81,0.00,CLR,SKC,0.00,WeatherDisplay:10.37,2013-02-26 14:36:00,
2013-02-26 08:41:00,21.1,16.2,29.72,North,355,2.8,4.0,81,0.00,CLR,SKC,0.00,WeatherDisplay:10.37,2013-02-26 14:41:00,
2013-02-26 08:46:00,21.3,16.4,29.72,North,360,2.8,4.0,81,0.00,CLR,SKC,0.00,WeatherDisplay:10.37,2013-02-26 14:46:00,
2013-02-26 08:52:00,21.7,16.8,29.72,NNE,13,2.8,5.0,81,0.00,CLR,SKC,0.00,WeatherDisplay:10.37,2013-02-26 14:52:00,
2013-02-26 08:57:00,22.0,17.1,29.72,NNE,23,4.7,7.0,81,0.00,CLR,SKC,0.00,WeatherDisplay:10.37,2013-02-26 14:57:00,
2013-02-26 09:02:00,22.5,17.5,29.73,NE,35,3.9,6.0,81,0.00,CLR,SKC,0.00,WeatherDisplay:10.37,2013-02-26 15:02:00,
2013-02-26 09:07:00,23.0,18.0,29.73,NE,38,2.9,4.6,81,0.00,CLR,SKC,0.00,WeatherDisplay:10.37,2013-02-26 15:07:00,
2013-02-26 09:12:00,23.4,18.4,29.73,NE,39,3.1,5.0,81,0.00,CLR,SKC,0.00,WeatherDisplay:10.37,2013-02-26 15:12:00,
2013-02-26 09:17:00,23.8,18.8,29.73,NE,41,3.6,5.0,81,0.00,CLR,SKC,0.00,WeatherDisplay:10.37,2013-02-26 15:17:00,
2013-02-26 09:22:00,24.3,19.3,29.73,NE,42,4.4,5.0,81,0.00,CLR,SKC,0.00,WeatherDisplay:10.37,2013-02-26 15:22:00,
2013-02-26 09:27:00,24.9,19.9,29.72,NE,38,4.2,5.8,81,0.00,CLR,SKC,0.00,WeatherDisplay:10.37,2013-02-26 15:27:00,
2013-02-26 09:32:00,25.4,20.4,29.73,NE,51,3.2,5.0,81,0.00,CLR,SKC,0.00,WeatherDisplay:10.37,2013-02-26 15:32:00,
2013-02-26 09:37:00,26.0,20.7,29.72,NE,54,4.4,8.1,80,0.00,CLR,SKC,0.00,WeatherDisplay:10.37,2013-02-26 15:37:00,
2013-02-26 09:42:00,26.4,21.1,29.72,NE,44,3.9,6.0,80,0.00,CLR,SKC,0.00,WeatherDisplay:10.37,2013-02-26 15:42:00,
2013-02-26 09:47:00,26.7,21.1,29.72,NE,36,4.4,9.2,79,0.00,CLR,SKC,0.00,WeatherDisplay:10.37,2013-02-26 15:47:00,
2013-02-26 09:52:00,27.0,21.4,29.72,NE,46,5.4,8.1,79,0.00,CLR,SKC,0.00,WeatherDisplay:10.37,2013-02-26 15:52:00,
2013-02-26 09:57:00,27.3,21.3,29.72,NE,56,4.7,7.0,78,0.00,CLR,SKC,0.00,WeatherDisplay:10.37,2013-02-26 15:57:00,
2013-02-26 10:02:00,27.4,21.1,29.72,NE,42,5.1,7.0,77,0.00,CLR,SKC,0.00,WeatherDisplay:10.37,2013-02-26 16:02:00,
2013-02-26 10:07:00,27.5,21.2,29.72,NE,49,3.9,6.9,77,0.00,CLR,SKC,0.00,WeatherDisplay:10.37,2013-02-26 16:07:00,
2013-02-26 10:12:00,27.5,20.9,29.72,NNE,32,4.4,6.9,76,0.00,CLR,SKC,0.00,WeatherDisplay:10.37,2013-02-26 16:12:00,
2013-02-26 10:17:00,27.6,21.0,29.72,NE,45,5.3,7.0,76,0.00,CLR,SKC,0.00,WeatherDisplay:10.37,2013-02-26 16:17:00,
2013-02-26 10:22:00,27.9,21.3,29.72,NE,37,5.4,8.1,76,0.00,CLR,SKC,0.00,WeatherDisplay:10.37,2013-02-26 16:22:00,
2013-02-26 10:27:00,28.1,21.5,29.71,NE,49,8.3,11.5,76,0.00,CLR,SKC,0.00,WeatherDisplay:10.37,2013-02-26 16:27:00,
2013-02-26 10:32:00,28.4,21.8,29.72,NW,323,8.3,12.0,76,0.00,CLR,SKC,0.00,WeatherDisplay:10.37,2013-02-26 16:32:00,
2013-02-26 10:37:00,28.6,22.0,29.72,North,5,5.6,8.1,76,0.00,CLR,SKC,0.00,WeatherDisplay:10.37,2013-02-26 16:37:00,
2013-02-26 10:42:00,28.8,22.2,29.71,NE,45,7.2,12.0,76,0.00,CLR,SKC,0.00,WeatherDisplay:10.37,2013-02-26 16:42:00,
2013-02-26 10:47:00,29.3,22.7,29.71,NE,46,7.9,12.0,76,0.00,CLR,SKC,0.00,WeatherDisplay:10.37,2013-02-26 16:47:00,
2013-02-26 10:52:00,29.7,22.7,29.71,North,355,7.4,10.4,75,0.00,CLR,SKC,0.00,WeatherDisplay:10.37,2013-02-26 16:52:00,
2013-02-26 10:57:00,30.1,23.1,29.71,NE,44,7.2,11.5,75,0.00,CLR,SKC,0.00,WeatherDisplay:10.37,2013-02-26 16:57:00,
2013-02-26 11:02:00,30.3,23.3,29.70,NNE,32,6.6,10.4,75,0.00,CLR,SKC,0.00,WeatherDisplay:10.37,2013-02-26 17:02:00,
2013-02-26 11:07:00,30.6,23.6,29.70,NE,38,9.5,12.0,75,0.00,CLR,SKC,0.00,WeatherDisplay:10.37,2013-02-26 17:07:00,
2013-02-26 11:12:00,30.9,23.9,29.70,NNE,17,8.7,12.0,75,0.00,CLR,SKC,0.00,WeatherDisplay:10.37,2013-02-26 17:12:00,
2013-02-26 11:17:00,31.0,24.0,29.69,NE,42,7.3,10.4,75,0.00,CLR,SKC,0.00,WeatherDisplay:10.37,2013-02-26 17:17:00,
2013-02-26 11:22:00,31.0,24.0,29.69,North,10,7.8,12.7,75,0.00,CLR,SKC,0.00,WeatherDisplay:10.37,2013-02-26 17:22:00,
2013-02-26 11:27:00,31.1,24.1,29.69,NNE,20,8.9,13.8,75,0.00,CLR,SKC,0.00,WeatherDisplay:10.37,2013-02-26 17:27:00,
2013-02-26 11:32:00,31.2,24.2,29.69,NNW,348,8.6,12.0,75,0.00,CLR,SKC,0.00,WeatherDisplay:10.37,2013-02-26 17:32:00,
2013-02-26 11:37:00,31.5,24.5,29.69,North,355,9.0,13.8,75,0.00,CLR,SKC,0.00,WeatherDisplay:10.37,2013-02-26 17:37:00,
2013-02-26 11:42:00,31.8,24.8,29.69,NE,51,8.1,13.8,75,0.00,CLR,SKC,0.00,WeatherDisplay:10.37,2013-02-26 17:42:00,
2013-02-26 11:47:00,32.0,25.0,29.69,NNE,31,7.2,10.4,75,0.00,CLR,SKC,0.00,WeatherDisplay:10.37,2013-02-26 17:47:00,
2013-02-26 11:52:00,32.1,25.1,29.68,NNE,15,7.1,11.5,75,0.00,CLR,SKC,0.00,WeatherDisplay:10.37,2013-02-26 17:52:00,
2013-02-26 11:57:00,32.2,25.2,29.68,North,5,9.1,14.0,75,0.00,CLR,SKC,0.00,WeatherDisplay:10.37,2013-02-26 17:57:00,
2013-02-26 12:02:00,32.3,25.3,29.68,NNW,336,10.0,14.0,75,0.00,CLR,SKC,0.00,WeatherDisplay:10.37,2013-02-26 18:02:00,
2013-02-26 12:07:00,32.3,25.3,29.68,NNE,15,6.2,11.5,75,0.00,CLR,SKC,0.00,WeatherDisplay:10.37,2013-02-26 18:07:00,
2013-02-26 12:12:00,32.5,25.5,29.68,NNE,18,6.4,8.1,75,0.00,CLR,SKC,0.00,WeatherDisplay:10.37,2013-02-26 18:12:00,
2013-02-26 12:17:00,32.6,25.6,29.67,NNE,19,7.7,12.7,75,0.00,CLR,SKC,0.00,WeatherDisplay:10.37,2013-02-26 18:17:00,
2013-02-26 12:22:00,32.8,25.7,29.67,North,355,6.3,12.7,75,0.00,CLR,SKC,0.00,WeatherDisplay:10.37,2013-02-26 18:22:00,
2013-02-26 12:27:00,32.9,25.8,29.67,NNE,23,6.8,11.5,75,0.00,CLR,SKC,0.00,WeatherDisplay:10.37,2013-02-26 18:27:00,
2013-02-26 12:32:00,33.0,25.9,29.67,NE,42,7.1,11.5,75,0.00,CLR,SKC,0.00,WeatherDisplay:10.37,2013-02-26 18:32:00,
2013-02-26 12:37:00,32.9,25.8,29.66,North,5,7.0,12.0,75,0.00,CLR,SKC,0.00,WeatherDisplay:10.37,2013-02-26 18:37:00,
2013-02-26 12:42:00,32.9,25.8,29.66,North,355,6.3,8.1,75,0.00,CLR,SKC,0.00,WeatherDisplay:10.37,2013-02-26 18:42:00,
2013-02-26 12:47:00,32.9,25.8,29.66,NNW,344,5.6,9.2,75,0.00,CLR,SKC,0.00,WeatherDisplay:10.37,2013-02-26 18:47:00,
2013-02-26 12:52:00,32.9,25.8,29.66,NNW,337,5.0,8.1,75,0.00,CLR,SKC,0.00,WeatherDisplay:10.37,2013-02-26 18:52:00,
2013-02-26 12:57:00,32.8,25.7,29.66,NW,326,4.7,8.1,75,0.00,CLR,SKC,0.00,WeatherDisplay:10.37,2013-02-26 18:57:00,
2013-02-26 13:02:00,32.7,25.6,29.66,NNW,340,4.5,6.9,75,0.00,CLR,SKC,0.00,WeatherDisplay:10.37,2013-02-26 19:02:00,
2013-02-26 13:07:00,32.5,25.5,29.66,NNW,331,5.0,7.0,75,0.00,CLR,SKC,0.00,WeatherDisplay:10.37,2013-02-26 19:07:00,
2013-02-26 13:12:00,32.4,25.4,29.65,North,355,5.6,8.1,75,0.00,CLR,SKC,0.00,WeatherDisplay:10.37,2013-02-26 19:12:00,
2013-02-26 13:17:00,32.3,25.3,29.65,North,360,4.5,8.1,75,0.00,CLR,SKC,0.00,WeatherDisplay:10.37,2013-02-26 19:17:00,
2013-02-26 13:22:00,32.1,25.1,29.65,North,5,6.0,10.4,75,0.00,CLR,SKC,0.00,WeatherDisplay:10.37,2013-02-26 19:22:00,
2013-02-26 13:27:00,32.1,25.1,29.65,NNW,338,5.4,10.4,75,0.00,CLR,SKC,0.00,WeatherDisplay:10.37,2013-02-26 19:27:00,
2013-02-26 13:32:00,32.2,25.2,29.65,NNW,341,5.2,7.0,75,0.00,CLR,SKC,0.00,WeatherDisplay:10.37,2013-02-26 19:32:00,
2013-02-26 13:38:00,32.4,25.4,29.65,NNW,327,5.3,8.1,75,0.00,CLR,SKC,0.00,WeatherDisplay:10.37,2013-02-26 19:38:00,
2013-02-26 13:43:00,32.5,25.5,29.65,North,355,5.9,10.0,75,0.00,CLR,SKC,0.00,WeatherDisplay:10.37,2013-02-26 19:43:00,
2013-02-26 13:48:00,32.8,25.7,29.64,NNW,335,5.0,8.1,75,0.00,CLR,SKC,0.00,WeatherDisplay:10.37,2013-02-26 19:48:00,
2013-02-26 13:53:00,33.0,25.9,29.64,North,349,7.2,9.2,75,0.00,CLR,SKC,0.00,WeatherDisplay:10.37,2013-02-26 19:53:00,
2013-02-26 13:59:00,33.2,26.1,29.64,North,9,6.4,10.4,75,0.00,CLR,SKC,0.00,WeatherDisplay:10.37,2013-02-26 19:59:00,
2013-02-26 14:04:00,33.4,26.3,29.64,North,360,6.0,10.4,75,0.00,CLR,SKC,0.00,WeatherDisplay:10.37,2013-02-26 20:04:00,
2013-02-26 14:09:00,33.6,26.5,29.63,North,355,5.7,9.2,75,0.00,CLR,SKC,0.00,WeatherDisplay:10.37,2013-02-26 20:09:00,
2013-02-26 14:14:00,33.5,26.4,29.63,NW,323,6.0,8.1,75,0.00,CLR,SKC,0.00,WeatherDisplay:10.37,2013-02-26 20:14:00,
2013-02-26 14:20:00,33.2,26.1,29.63,North,360,6.7,11.5,75,0.00,CLR,SKC,0.00,WeatherDisplay:10.37,2013-02-26 20:20:00,
2013-02-26 14:26:00,32.9,25.8,29.62,NNW,335,5.0,7.0,75,0.00,CLR,SKC,0.00,WeatherDisplay:10.37,2013-02-26 20:26:00,
2013-02-26 14:31:00,32.8,25.7,29.62,North,360,6.9,10.4,75,0.00,CLR,SKC,0.00,WeatherDisplay:10.37,2013-02-26 20:31:00,
2013-02-26 14:37:00,32.7,25.6,29.62,NW,323,5.6,9.0,75,0.00,CLR,SKC,0.00,WeatherDisplay:10.37,2013-02-26 20:37:00,
2013-02-26 14:42:00,32.8,25.7,29.62,NNW,338,5.7,8.1,75,0.00,CLR,SKC,0.00,WeatherDisplay:10.37,2013-02-26 20:42:00,
2013-02-26 14:47:00,33.0,25.9,29.62,NW,325,6.4,10.4,75,0.00,CLR,SKC,0.00,WeatherDisplay:10.37,2013-02-26 20:47:00,
2013-02-26 14:52:00,33.1,26.0,29.62,NNW,342,5.6,11.5,75,0.00,CLR,SKC,0.00,WeatherDisplay:10.37,2013-02-26 20:52:00,
2013-02-26 14:57:00,33.0,25.9,29.62,NNW,348,7.5,12.0,75,0.00,CLR,SKC,0.00,WeatherDisplay:10.37,2013-02-26 20:57:00,
2013-02-26 15:02:00,33.0,25.9,29.62,NNW,330,7.4,13.0,75,0.00,CLR,SKC,0.00,WeatherDisplay:10.37,2013-02-26 21:02:00,
2013-02-26 15:07:00,32.9,25.8,29.62,North,5,7.0,12.0,75,0.00,CLR,SKC,0.00,WeatherDisplay:10.37,2013-02-26 21:07:00,
2013-02-26 15:12:00,32.9,25.8,29.62,NNW,338,5.6,11.5,75,0.00,CLR,SKC,0.00,WeatherDisplay:10.37,2013-02-26 21:12:00,
2013-02-26 15:17:00,33.0,25.9,29.61,NNW,335,6.8,12.7,75,0.00,CLR,SKC,0.00,WeatherDisplay:10.37,2013-02-26 21:17:00,
2013-02-26 15:22:00,33.0,25.6,29.61,NNW,338,7.5,12.0,74,0.00,CLR,SKC,0.00,WeatherDisplay:10.37,2013-02-26 21:22:00,
2013-02-26 15:27:00,33.0,25.9,29.61,NNW,336,8.6,11.5,75,0.00,CLR,SKC,0.00,WeatherDisplay:10.37,2013-02-26 21:27:00,
2013-02-26 15:32:00,33.0,25.9,29.61,North,351,7.2,11.5,75,0.00,CLR,SKC,0.00,WeatherDisplay:10.37,2013-02-26 21:32:00,
2013-02-26 15:37:00,33.0,25.9,29.62,NNW,344,7.2,10.4,75,0.00,CLR,SKC,0.00,WeatherDisplay:10.37,2013-02-26 21:37:00,
2013-02-26 15:42:00,33.2,26.1,29.62,NW,325,6.7,11.5,75,0.00,CLR,SKC,0.00,WeatherDisplay:10.37,2013-02-26 21:42:00,
2013-02-26 15:47:00,33.2,25.8,29.62,NNE,24,8.1,20.7,74,0.00,CLR,SKC,0.00,WeatherDisplay:10.37,2013-02-26 21:47:00,
2013-02-26 15:52:00,32.8,25.7,29.62,NW,319,10.4,15.0,75,0.00,CLR,SKC,0.00,WeatherDisplay:10.37,2013-02-26 21:52:00,
2013-02-26 15:57:00,32.4,25.4,29.62,North,355,9.3,15.0,75,0.00,CLR,SKC,0.00,WeatherDisplay:10.37,2013-02-26 21:57:00,
2013-02-26 16:02:00,32.2,25.2,29.62,NNE,18,11.5,17.3,75,0.00,SCT,SKC,0.00,WeatherDisplay:10.37,2013-02-26 22:02:00,
2013-02-26 16:07:00,32.2,25.2,29.62,NNW,333,11.5,16.1,75,0.00,SCT,SKC,0.00,WeatherDisplay:10.37,2013-02-26 22:07:00,
2013-02-26 16:12:00,32.1,25.1,29.63,North,355,10.1,14.0,75,0.00,SCT,SKC,0.00,WeatherDisplay:10.37,2013-02-26 22:12:00,
2013-02-26 16:17:00,32.0,25.0,29.63,North,9,8.7,14.0,75,0.00,SCT,SKC,0.00,WeatherDisplay:10.37,2013-02-26 22:17:00,
2013-02-26 16:22:00,31.9,24.9,29.63,NNE,28,10.2,17.3,75,0.00,SCT,SKC,0.00,WeatherDisplay:10.37,2013-02-26 22:22:00,
2013-02-26 16:27:00,31.9,24.9,29.63,North,360,10.4,18.4,75,0.00,SCT,SKC,0.00,WeatherDisplay:10.37,2013-02-26 22:27:00,
2013-02-26 16:32:00,31.8,24.8,29.63,North,9,11.3,16.1,75,0.00,SCT,SKC,0.00,WeatherDisplay:10.37,2013-02-26 22:32:00,
2013-02-26 16:37:00,31.7,24.7,29.63,North,9,10.3,17.3,75,0.00,SCT,SKC,0.00,WeatherDisplay:10.37,2013-02-26 22:37:00,
2013-02-26 16:42:00,31.6,24.6,29.63,NNE,32,9.5,15.0,75,0.00,CLR,SKC,0.00,WeatherDisplay:10.37,2013-02-26 22:42:00,
2013-02-26 16:47:00,31.5,24.5,29.63,North,5,7.4,11.5,75,0.00,CLR,SKC,0.00,WeatherDisplay:10.37,2013-02-26 22:47:00,
2013-02-26 16:52:00,31.4,24.4,29.63,North,5,6.0,10.4,75,0.00,CLR,SKC,0.00,WeatherDisplay:10.37,2013-02-26 22:52:00,
2013-02-26 16:57:00,31.2,24.2,29.63,North,5,4.6,9.2,75,0.00,CLR,SKC,0.00,WeatherDisplay:10.37,2013-02-26 22:57:00,
2013-02-26 17:02:00,31.1,24.1,29.63,North,360,3.6,6.9,75,0.00,CLR,SKC,0.00,WeatherDisplay:10.37,2013-02-26 23:02:00,
2013-02-26 17:07:00,31.1,24.1,29.62,North,355,4.7,6.0,75,0.00,CLR,SKC,0.00,WeatherDisplay:10.37,2013-02-26 23:07:00,
2013-02-26 17:13:00,31.1,24.1,29.63,North,9,4.9,6.9,75,0.00,CLR,SKC,0.00,WeatherDisplay:10.37,2013-02-26 23:13:00,
2013-02-26 17:18:00,31.1,24.1,29.62,NNW,346,5.3,8.1,75,0.00,CLR,SKC,0.00,WeatherDisplay:10.37,2013-02-26 23:18:00,
2013-02-26 17:23:00,31.1,24.1,29.62,North,349,4.5,6.9,75,0.00,CLR,SKC,0.00,WeatherDisplay:10.37,2013-02-26 23:23:00,
2013-02-26 17:28:00,31.0,24.0,29.62,NNW,342,4.8,6.0,75,0.00,CLR,SKC,0.00,WeatherDisplay:10.37,2013-02-26 23:28:00,
2013-02-26 17:33:00,31.0,24.0,29.63,North,355,3.2,5.8,75,0.00,CLR,SKC,0.00,WeatherDisplay:10.37,2013-02-26 23:33:00,
2013-02-26 17:39:00,30.8,23.8,29.63,North,360,3.3,4.6,75,0.00,CLR,SKC,0.00,WeatherDisplay:10.37,2013-02-26 23:39:00,
2013-02-26 17:44:00,30.7,23.7,29.63,North,360,2.6,4.6,75,0.00,CLR,SKC,0.00,WeatherDisplay:10.37,2013-02-26 23:44:00,
2013-02-26 17:49:00,30.4,23.4,29.63,North,355,2.0,4.6,75,0.00,CLR,SKC,0.00,WeatherDisplay:10.37,2013-02-26 23:49:00,
2013-02-26 17:54:00,30.2,23.2,29.63,North,349,3.9,5.0,75,0.00,CLR,SKC,0.00,WeatherDisplay:10.37,2013-02-26 23:54:00,
2013-02-26 17:59:00,30.2,23.5,29.63,North,351,3.7,6.0,76,0.00,CLR,SKC,0.00,WeatherDisplay:10.37,2013-02-26 23:59:00,
2013-02-26 18:04:00,30.4,23.7,29.63,NNW,332,3.5,8.1,76,0.00,CLR,SKC,0.00,WeatherDisplay:10.37,2013-02-27 00:04:00,
2013-02-26 18:09:00,30.5,23.5,29.63,NNW,339,3.8,5.0,75,0.00,CLR,SKC,0.00,WeatherDisplay:10.37,2013-02-27 00:09:00,
2013-02-26 18:14:00,30.6,23.6,29.63,NNW,342,4.6,10.4,75,0.00,CLR,SKC,0.00,WeatherDisplay:10.37,2013-02-27 00:14:00,
2013-02-26 18:19:00,30.8,24.1,29.63,NNW,339,4.6,8.1,76,0.00,CLR,SKC,0.00,WeatherDisplay:10.37,2013-02-27 00:19:00,
2013-02-26 18:24:00,30.9,23.9,29.63,NW,326,4.3,10.4,75,0.00,CLR,SKC,0.00,WeatherDisplay:10.37,2013-02-27 00:24:00,
2013-02-26 18:29:00,30.9,23.9,29.63,North,360,4.8,9.2,75,0.00,CLR,SKC,0.00,WeatherDisplay:10.37,2013-02-27 00:29:00,
2013-02-26 18:34:00,31.0,24.0,29.63,North,350,3.3,8.1,75,0.00,CLR,SKC,0.00,WeatherDisplay:10.37,2013-02-27 00:34:00,
2013-02-26 18:39:00,31.2,24.2,29.63,NNW,340,4.2,8.1,75,0.00,CLR,SKC,0.00,WeatherDisplay:10.37,2013-02-27 00:39:00,
2013-02-26 18:44:00,31.3,24.3,29.63,NNW,333,4.0,9.2,75,0.00,CLR,SKC,0.00,WeatherDisplay:10.37,2013-02-27 00:44:00,
2013-02-26 18:49:00,31.2,24.2,29.63,NNW,343,3.8,6.9,75,0.00,CLR,SKC,0.00,WeatherDisplay:10.37,2013-02-27 00:49:00,
2013-02-26 18:54:00,31.2,24.2,29.63,NNW,338,3.6,5.8,75,0.00,CLR,SKC,0.00,WeatherDisplay:10.37,2013-02-27 00:54:00,
2013-02-26 18:59:00,31.1,24.1,29.63,North,5,5.0,10.4,75,0.00,CLR,SKC,0.00,WeatherDisplay:10.37,2013-02-27 00:59:00,
2013-02-26 19:04:00,31.1,24.1,29.63,NW,325,2.8,4.0,75,0.00,CLR,SKC,0.00,WeatherDisplay:10.37,2013-02-27 01:04:00,
2013-02-26 19:09:00,31.0,24.0,29.63,NW,324,3.8,5.0,75,0.00,CLR,SKC,0.00,WeatherDisplay:10.37,2013-02-27 01:09:00,
2013-02-26 19:14:00,30.8,23.8,29.63,NNW,345,3.3,5.0,75,0.00,CLR,SKC,0.00,WeatherDisplay:10.37,2013-02-27 01:14:00,
2013-02-26 19:19:00,30.8,23.8,29.63,NNW,336,3.9,5.8,75,0.00,CLR,SKC,0.00,WeatherDisplay:10.37,2013-02-27 01:19:00,
2013-02-26 19:24:00,30.8,23.8,29.63,NNW,342,4.6,6.9,75,0.00,CLR,SKC,0.00,WeatherDisplay:10.37,2013-02-27 01:24:00,
2013-02-26 19:29:00,30.8,23.8,29.63,NNW,329,4.5,6.9,75,0.00,CLR,SKC,0.00,WeatherDisplay:10.37,2013-02-27 01:29:00,
2013-02-26 19:34:00,30.9,23.9,29.63,NNW,345,3.9,6.9,75,0.00,CLR,SKC,0.00,WeatherDisplay:10.37,2013-02-27 01:34:00,
2013-02-26 19:39:00,30.8,23.8,29.63,NNW,336,3.8,5.0,75,0.00,CLR,SKC,0.00,WeatherDisplay:10.37,2013-02-27 01:39:00,
2013-02-26 19:44:00,30.8,23.8,29.63,NNW,329,3.5,5.0,75,0.00,CLR,SKC,0.00,WeatherDisplay:10.37,2013-02-27 01:44:00,
2013-02-26 19:49:00,30.7,23.7,29.62,North,355,4.4,8.1,75,0.00,CLR,SKC,0.00,WeatherDisplay:10.37,2013-02-27 01:49:00,
2013-02-26 19:54:00,30.7,23.7,29.62,North,360,4.2,10.4,75,0.00,CLR,SKC,0.00,WeatherDisplay:10.37,2013-02-27 01:54:00,
2013-02-26 19:59:00,30.8,23.8,29.62,NNW,343,3.7,5.0,75,0.00,CLR,SKC,0.00,WeatherDisplay:10.37,2013-02-27 01:59:00,
2013-02-26 20:04:00,30.8,23.8,29.62,North,350,3.2,5.8,75,0.00,CLR,SKC,0.00,WeatherDisplay:10.37,2013-02-27 02:04:00,
2013-02-26 20:09:00,30.7,23.7,29.62,NW,323,3.3,5.8,75,0.00,CLR,SKC,0.00,WeatherDisplay:10.37,2013-02-27 02:09:00,
2013-02-26 20:15:00,30.6,23.6,29.62,NNW,340,2.3,4.0,75,0.00,CLR,SKC,0.00,WeatherDisplay:10.37,2013-02-27 02:15:00,
2013-02-26 20:20:00,30.3,23.3,29.63,NNW,341,2.9,4.0,75,0.00,CLR,SKC,0.00,WeatherDisplay:10.37,2013-02-27 02:20:00,
2013-02-26 20:25:00,30.1,23.1,29.63,North,349,2.3,4.0,75,0.00,CLR,SKC,0.00,WeatherDisplay:10.37,2013-02-27 02:25:00,
2013-02-26 20:31:00,29.9,23.3,29.63,NNW,335,2.1,3.5,76,0.00,CLR,SKC,0.00,WeatherDisplay:10.37,2013-02-27 02:31:00,
2013-02-26 20:36:00,29.7,22.7,29.63,NNW,336,2.1,4.0,75,0.00,CLR,SKC,0.00,WeatherDisplay:10.37,2013-02-27 02:36:00,
2013-02-26 20:41:00,29.4,22.8,29.63,NNW,341,2.4,3.5,76,0.00,CLR,SKC,0.00,WeatherDisplay:10.37,2013-02-27 02:41:00,
2013-02-26 20:46:00,29.2,22.6,29.63,NNW,341,2.6,4.0,76,0.00,CLR,SKC,0.00,WeatherDisplay:10.37,2013-02-27 02:46:00,
2013-02-26 20:51:00,29.0,22.4,29.63,NNW,341,2.1,3.5,76,0.00,CLR,SKC,0.00,WeatherDisplay:10.37,2013-02-27 02:51:00,
2013-02-26 20:56:00,28.9,22.3,29.63,NNW,341,2.5,4.0,76,0.00,CLR,SKC,0.00,WeatherDisplay:10.37,2013-02-27 02:56:00,
2013-02-26 21:01:00,28.8,22.2,29.63,NNW,343,2.4,3.5,76,0.00,CLR,SKC,0.00,WeatherDisplay:10.37,2013-02-27 03:01:00,
2013-02-26 21:06:00,28.7,22.1,29.63,NNW,341,2.3,4.0,76,0.00,CLR,SKC,0.00,WeatherDisplay:10.37,2013-02-27 03:06:00,
2013-02-26 21:11:00,28.7,22.1,29.63,NNW,342,1.7,3.5,76,0.00,CLR,SKC,0.00,WeatherDisplay:10.37,2013-02-27 03:11:00,
2013-02-26 21:16:00,28.7,22.1,29.63,NNW,331,2.6,3.5,76,0.00,CLR,SKC,0.00,WeatherDisplay:10.37,2013-02-27 03:16:00,
2013-02-26 21:21:00,28.7,22.1,29.63,NNW,331,2.7,4.0,76,0.00,CLR,SKC,0.00,WeatherDisplay:10.37,2013-02-27 03:21:00,
2013-02-26 21:26:00,28.7,22.1,29.63,NNW,333,2.9,4.0,76,0.00,CLR,SKC,0.00,WeatherDisplay:10.37,2013-02-27 03:26:00,
2013-02-26 21:31:00,28.6,22.0,29.63,NNW,343,3.0,5.0,76,0.00,CLR,SKC,0.00,WeatherDisplay:10.37,2013-02-27 03:31:00,
2013-02-26 21:36:00,28.1,21.5,29.63,NW,315,2.4,3.5,76,0.00,CLR,SKC,0.00,WeatherDisplay:10.37,2013-02-27 03:36:00,
2013-02-26 21:41:00,27.8,21.2,29.62,NW,315,2.4,4.0,76,0.00,CLR,SKC,0.00,WeatherDisplay:10.37,2013-02-27 03:41:00,
2013-02-26 21:46:00,27.8,21.2,29.62,NW,317,3.1,4.0,76,0.00,CLR,SKC,0.00,WeatherDisplay:10.37,2013-02-27 03:46:00,
2013-02-26 21:51:00,28.1,21.5,29.62,NNW,336,3.2,5.0,76,0.00,CLR,SKC,0.00,WeatherDisplay:10.37,2013-02-27 03:51:00,
2013-02-26 21:56:00,28.4,21.8,29.62,NW,321,3.0,5.0,76,0.00,CLR,SKC,0.00,WeatherDisplay:10.37,2013-02-27 03:56:00,
2013-02-26 22:01:00,28.5,21.9,29.62,NNW,327,3.2,5.0,76,0.00,CLR,SKC,0.00,WeatherDisplay:10.37,2013-02-27 04:01:00,
2013-02-26 22:06:00,28.6,22.0,29.62,NNW,338,3.0,5.0,76,0.00,CLR,SKC,0.00,WeatherDisplay:10.37,2013-02-27 04:06:00,
2013-02-26 22:11:00,28.6,22.0,29.62,NNW,335,3.6,4.6,76,0.00,CLR,SKC,0.00,WeatherDisplay:10.37,2013-02-27 04:11:00,
2013-02-26 22:16:00,28.6,22.0,29.62,NNW,336,3.0,4.6,76,0.00,CLR,SKC,0.00,WeatherDisplay:10.37,2013-02-27 04:16:00,
2013-02-26 22:21:00,28.7,22.1,29.62,NNW,334,2.9,4.0,76,0.00,CLR,SKC,0.00,WeatherDisplay:10.37,2013-02-27 04:21:00,
2013-02-26 22:27:00,28.8,22.2,29.62,NNW,333,3.2,5.0,76,0.00,CLR,SKC,0.00,WeatherDisplay:10.37,2013-02-27 04:27:00,
2013-02-26 22:32:00,28.8,22.2,29.62,NNW,327,2.4,3.5,76,0.00,CLR,SKC,0.00,WeatherDisplay:10.37,2013-02-27 04:32:00,
2013-02-26 22:37:00,28.4,21.8,29.62,NW,319,2.7,4.0,76,0.00,CLR,SKC,0.00,WeatherDisplay:10.37,2013-02-27 04:37:00,
2013-02-26 22:42:00,28.2,21.6,29.62,NNW,333,3.1,5.0,76,0.00,CLR,SKC,0.00,WeatherDisplay:10.37,2013-02-27 04:42:00,
2013-02-26 22:47:00,28.5,21.9,29.62,NNW,336,3.3,4.0,76,0.00,CLR,SKC,0.00,WeatherDisplay:10.37,2013-02-27 04:47:00,
2013-02-26 22:52:00,28.5,21.9,29.63,NNW,340,2.9,4.0,76,0.00,CLR,SKC,0.00,WeatherDisplay:10.37,2013-02-27 04:52:00,
2013-02-26 22:57:00,28.4,21.8,29.63,NNW,337,2.6,4.0,76,0.00,CLR,SKC,0.00,WeatherDisplay:10.37,2013-02-27 04:57:00,
2013-02-26 23:00:00,28.3,21.7,29.63,NNW,337,2.9,4.0,76,0.00,CLR,SKC,0.00,WeatherDisplay:10.37,2013-02-27 05:00:00,
2013-02-26 23:01:00,28.2,21.6,29.63,NNW,337,2.7,4.0,76,0.00,CLR,SKC,0.00,WeatherDisplay:10.37,2013-02-27 05:01:00,
2013-02-26 23:06:00,28.2,21.6,29.63,NNW,338,2.0,5.0,76,0.00,CLR,SKC,0.00,WeatherDisplay:10.37,2013-02-27 05:06:00,
2013-02-26 23:11:00,28.1,21.5,29.62,NNW,342,2.5,4.0,76,0.00,CLR,SKC,0.00,WeatherDisplay:10.37,2013-02-27 05:11:00,
2013-02-26 23:16:00,28.0,21.4,29.63,NNW,342,2.0,3.5,76,0.00,CLR,SKC,0.00,WeatherDisplay:10.37,2013-02-27 05:16:00,
2013-02-26 23:21:00,27.9,21.3,29.62,NNW,341,2.0,4.0,76,0.00,CLR,SKC,0.00,WeatherDisplay:10.37,2013-02-27 05:21:00,
2013-02-26 23:26:00,27.8,21.2,29.62,NNW,338,2.0,4.0,76,0.00,CLR,SKC,0.00,WeatherDisplay:10.37,2013-02-27 05:26:00,
2013-02-26 23:31:00,27.9,21.3,29.62,NNW,338,2.1,3.5,76,0.00,CLR,SKC,0.00,WeatherDisplay:10.37,2013-02-27 05:31:00,
2013-02-26 23:36:00,28.3,21.7,29.62,NNW,346,2.7,4.0,76,0.00,CLR,SKC,0.00,WeatherDisplay:10.37,2013-02-27 05:36:00,
2013-02-26 23:41:00,28.6,22.0,29.62,North,350,2.7,4.0,76,0.00,CLR,SKC,0.00,WeatherDisplay:10.37,2013-02-27 05:41:00,
2013-02-26 23:46:00,28.8,22.2,29.61,North,355,2.7,5.8,76,0.00,CLR,SKC,0.00,WeatherDisplay:10.37,2013-02-27 05:46:00,
2013-02-26 23:51:00,28.9,22.3,29.61,North,355,3.9,6.0,76,0.00,CLR,SKC,0.00,WeatherDisplay:10.37,2013-02-27 05:51:00,
2013-02-26 23:56:00,29.1,22.5,29.61,North,351,4.6,6.0,76,0.00,CLR,SKC,0.00,WeatherDisplay:10.37,2013-02-27 05:56:00,